Time;durP1;ratioP1;P1;durP2;ratioP2;P2;SDS_P1;SDS_P2;PMS_P1;PMS_P2;Temp;Humidity;BMP_temperature;BMP_pressure;BME280_temperature;BME280_humidity;BME280_pressure;Samples;Min_cycle;Max_cycle;Signal;HPM_P1;HPM_P2
2022/04/26 03:36:12;;;;;;;17.80;7.68;;;;;;;13.16;93.74;100093.94;5072493;28;20656;-77
2022/04/26 03:38:43;;;;;;;19.25;8.40;;;;;;;13.09;94.95;100092.94;5072878;28;20098;-76
2022/04/26 03:41:09;;;;;;;14.65;8.20;;;;;;;13.19;94.51;100087.94;5072170;28;20028;-76
2022/04/26 03:43:34;;;;;;;17.25;7.97;;;;;;;13.22;94.82;100091.47;5072558;28;20039;-75
2022/04/26 03:46:00;;;;;;;14.30;7.60;;;;;;;13.15;95.32;100084.41;5072645;28;20415;-78
2022/04/26 03:48:26;;;;;;;20.48;8.68;;;;;;;13.28;95.26;100088.13;5072653;28;20024;-77
2022/04/26 03:50:51;;;;;;;17.20;8.27;;;;;;;12.84;94.71;100000.88;5072206;28;20035;-74
2022/04/26 03:53:17;;;;;;;17.65;7.78;;;;;;;13.54;94.67;100105.94;5072646;28;20051;-77
2022/04/26 03:55:42;;;;;;;16.60;7.63;;;;;;;13.69;94.40;100106.22;5072280;28;20016;-76
2022/04/26 03:58:08;;;;;;;18.63;8.30;;;;;;;13.85;94.01;100106.50;5072421;28;20448;-76
2022/04/26 04:00:33;;;;;;;18.50;8.05;;;;;;;13.87;93.21;100105.69;5072002;28;20052;-72
2022/04/26 04:03:00;;;;;;;13.93;7.43;;;;;;;13.97;93.21;100108.44;5072128;28;20403;-75
2022/04/26 04:05:25;;;;;;;14.43;7.18;;;;;;;13.81;94.80;100104.72;5072298;28;20024;-77
2022/04/26 04:07:50;;;;;;;22.70;8.05;;;;;;;13.71;95.54;100107.13;5072275;28;20093;-76
2022/04/26 04:10:16;;;;;;;19.40;7.85;;;;;;;13.78;95.31;100089.06;5071939;28;20029;-74
2022/04/26 04:12:41;;;;;;;23.33;7.50;;;;;;;13.87;95.63;100123.00;5072147;28;20058;-76
2022/04/26 04:15:07;;;;;;;17.30;7.90;;;;;;;13.50;96.91;100124.91;5071789;28;20547;-76
2022/04/26 04:17:33;;;;;;;18.55;6.75;;;;;;;13.07;99.10;100122.25;5071052;28;20040;-76
2022/04/26 04:19:58;;;;;;;24.38;8.00;;;;;;;13.30;98.17;100111.50;5071993;28;20031;-76
2022/04/26 04:22:24;;;;;;;15.05;7.38;;;;;;;13.38;97.30;100112.53;5071737;28;20039;-76
2022/04/26 04:24:49;;;;;;;20.48;7.78;;;;;;;13.42;97.50;100110.06;5071075;28;20024;-75
2022/04/26 04:27:15;;;;;;;20.27;8.13;;;;;;;13.23;97.49;100126.94;5069677;28;20037;-76
2022/04/26 04:29:40;;;;;;;19.15;9.13;;;;;;;13.13;98.98;100135.34;5071710;28;20027;-76
2022/04/26 04:32:06;;;;;;;22.25;8.90;;;;;;;13.25;97.95;100124.38;5061701;28;20053;-74
2022/04/26 04:34:31;;;;;;;22.83;9.02;;;;;;;13.54;97.32;100142.25;5051657;28;20021;-74
2022/04/26 04:36:57;;;;;;;18.65;7.53;;;;;;;13.38;97.07;100110.84;5068641;28;20028;-74
2022/04/26 04:39:23;;;;;;;21.33;7.85;;;;;;;13.39;98.16;100148.88;5070789;28;20476;-75
2022/04/26 04:41:52;;;;;;;20.58;7.90;;;;;;;13.19;99.81;100144.97;5070781;28;20056;-73
2022/04/26 04:44:18;;;;;;;17.00;8.10;;;;;;;13.35;99.52;100144.44;5070789;28;20067;-76
2022/04/26 04:46:44;;;;;;;20.40;8.10;;;;;;;13.26;100.00;100129.56;5070784;28;20263;-74
2022/04/26 04:49:10;;;;;;;19.88;7.40;;;;;;;13.30;99.15;100120.16;5070752;28;20036;-74
2022/04/26 04:51:36;;;;;;;15.60;7.75;;;;;;;13.67;98.31;100152.03;5071154;28;20051;-74
2022/04/26 04:54:04;;;;;;;14.43;7.28;;;;;;;13.76;98.62;100143.53;5070603;28;20408;-74
2022/04/26 04:56:33;;;;;;;19.10;7.72;;;;;;;13.80;97.99;100144.47;5071266;28;20048;-75
2022/04/26 04:58:58;;;;;;;21.65;7.20;;;;;;;13.98;97.30;100146.50;5071285;28;20094;-75
2022/04/26 05:01:24;;;;;;;12.23;7.25;;;;;;;14.04;96.96;100160.50;5065576;28;20438;-74
2022/04/26 05:03:50;;;;;;;18.77;7.57;;;;;;;14.11;97.21;100164.06;5056860;28;20024;-75
2022/04/26 05:06:17;;;;;;;17.15;6.90;;;;;;;14.16;97.65;100166.75;5068795;28;20094;-75
2022/04/26 05:08:44;;;;;;;16.30;7.60;;;;;;;14.25;97.59;100164.28;5070374;28;20035;-75
2022/04/26 05:11:10;;;;;;;16.70;7.07;;;;;;;14.23;97.81;100160.78;5070303;28;20020;-76
2022/04/26 05:13:36;;;;;;;18.63;8.00;;;;;;;14.17;99.58;100176.28;5070447;28;20021;-73
2022/04/26 05:16:01;;;;;;;16.50;7.97;;;;;;;14.05;100.00;100188.19;5070339;28;20377;-73
2022/04/26 05:18:30;;;;;;;16.48;6.97;;;;;;;14.23;100.00;100178.97;5069940;28;20029;-77
2022/04/26 05:20:55;;;;;;;20.90;9.32;;;;;;;14.44;99.48;100178.44;5060602;28;20116;-73
2022/04/26 05:26:05;;;;;;;25.55;11.00;;;;;;;14.52;98.85;100184.66;5069903;28;20086;-75
2022/04/26 05:28:31;;;;;;;25.90;11.13;;;;;;;14.42;99.18;100135.13;5070369;28;20032;-76
2022/04/26 05:30:56;;;;;;;34.03;11.90;;;;;;;14.78;98.82;100171.25;5069945;28;20420;-75
2022/04/26 05:33:25;;;;;;;41.53;13.52;;;;;;;14.99;98.08;100170.69;5070498;28;20101;-75
2022/04/26 05:35:50;;;;;;;40.60;13.65;;;;;;;14.96;97.65;100169.75;5070333;28;20036;-75
2022/04/26 05:38:16;;;;;;;33.83;14.68;;;;;;;15.12;97.54;100170.84;5070226;28;20551;-74
2022/04/26 05:40:42;;;;;;;30.63;13.07;;;;;;;15.13;97.32;100157.00;5070320;28;20465;-74
2022/04/26 05:43:08;;;;;;;31.13;13.52;;;;;;;15.20;95.81;100164.00;5070539;28;20028;-76
2022/04/26 05:45:33;;;;;;;30.45;13.80;;;;;;;15.30;96.71;100171.09;5070270;28;20103;-75
2022/04/26 05:47:59;;;;;;;21.33;9.65;;;;;;;15.36;95.16;100176.38;5070039;28;20037;-75
2022/04/26 05:50:25;;;;;;;22.48;8.77;;;;;;;15.51;95.36;100178.28;5070250;28;20025;-73
2022/04/26 05:52:50;;;;;;;17.65;7.78;;;;;;;15.59;94.25;100161.88;5068655;28;20081;-76
2022/04/26 05:55:15;;;;;;;16.75;6.80;;;;;;;15.88;92.12;100174.38;5070456;28;20034;-76
2022/04/26 05:57:42;;;;;;;16.30;6.30;;;;;;;16.06;90.13;100178.91;5070144;28;20025;-76
2022/04/26 06:00:10;;;;;;;15.25;6.43;;;;;;;16.25;89.54;100178.22;5069829;28;20144;-76
2022/04/26 06:02:35;;;;;;;22.73;10.35;;;;;;;16.45;93.54;100180.13;5069947;28;20031;-76
2022/04/26 06:05:02;;;;;;;21.65;10.38;;;;;;;16.64;96.19;100173.31;5070239;28;20115;-78
2022/04/26 06:07:30;;;;;;;22.77;9.70;;;;;;;16.54;93.91;100163.69;5070391;28;20032;-78
2022/04/26 06:09:56;;;;;;;22.08;8.55;;;;;;;16.61;93.94;100174.16;5069968;28;20492;-76
2022/04/26 06:12:26;;;;;;;29.02;9.30;;;;;;;16.71;95.38;100171.63;5070240;28;20055;-76
2022/04/26 06:15:01;;;;;;;20.15;8.93;;;;;;;16.95;96.23;100174.41;5070447;28;20039;-78
2022/04/26 06:17:27;;;;;;;20.45;7.38;;;;;;;17.14;91.12;100179.75;5067904;28;20037;-79
2022/04/26 06:19:53;;;;;;;22.10;7.05;;;;;;;17.32;90.87;100178.09;5070039;28;20373;-78
2022/04/26 06:22:18;;;;;;;20.98;7.43;;;;;;;17.42;91.37;100172.91;5070243;28;20456;-78
2022/04/26 06:24:44;;;;;;;16.15;5.85;;;;;;;17.58;91.84;100167.75;5070388;28;20033;-76
2022/04/26 06:27:09;;;;;;;15.63;6.25;;;;;;;17.87;89.61;100170.44;5069958;28;20040;-75
2022/04/26 06:29:35;;;;;;;17.48;6.57;;;;;;;17.89;88.16;100146.94;5069835;28;20021;-80
2022/04/26 06:32:02;;;;;;;19.15;5.90;;;;;;;18.05;88.39;100142.66;5070135;28;20040;-76
2022/04/26 06:34:27;;;;;;;18.33;6.25;;;;;;;18.32;88.95;100161.81;5070267;28;20035;-77
2022/04/26 06:36:52;;;;;;;25.42;6.80;;;;;;;18.40;90.25;100167.91;5070185;28;20032;-77
2022/04/26 06:39:18;;;;;;;19.17;5.68;;;;;;;18.47;84.26;100163.53;5070156;28;20391;-77
2022/04/26 06:41:43;;;;;;;14.27;3.72;;;;;;;18.67;79.12;100153.97;5069693;28;20449;-77
2022/04/26 06:44:09;;;;;;;10.07;4.18;;;;;;;18.80;79.08;100172.25;5088937;28;20385;-77
2022/04/26 06:46:37;;;;;;;11.77;3.90;;;;;;;18.92;79.91;100177.50;5073704;28;20140;-77
2022/04/26 06:49:03;;;;;;;11.90;3.53;;;;;;;18.90;75.16;100145.19;5073573;28;20456;-77
2022/04/26 06:51:35;;;;;;;13.30;4.10;;;;;;;19.35;73.60;100177.38;5074081;28;20032;-78
2022/04/26 06:54:01;;;;;;;14.75;3.70;;;;;;;19.66;72.40;100176.34;5073819;28;20020;-78
2022/04/26 06:56:26;;;;;;;14.80;3.88;;;;;;;19.76;71.07;100159.69;5073866;28;20604;-77
2022/04/26 06:58:52;;;;;;;9.43;3.75;;;;;;;19.87;70.99;100175.38;5073449;28;20035;-77
2022/04/26 07:01:17;;;;;;;11.95;3.30;;;;;;;20.12;71.45;100176.09;5073550;28;20078;-77
2022/04/26 07:03:43;;;;;;;11.32;3.40;;;;;;;20.17;69.40;100160.34;5073471;28;20471;-75
2022/04/26 07:06:08;;;;;;;13.10;3.10;;;;;;;20.31;68.27;100175.94;5073654;28;20478;-76
2022/04/26 07:08:33;;;;;;;9.85;3.17;;;;;;;20.31;67.95;100175.94;5073830;28;20519;-77
2022/04/26 07:10:59;;;;;;;14.10;3.35;;;;;;;20.44;66.35;100174.97;5072154;28;20028;-76
2022/04/26 07:13:24;;;;;;;13.75;3.97;;;;;;;20.61;70.85;100174.84;5072088;28;20024;-77
2022/04/26 07:15:50;;;;;;;7.80;2.63;;;;;;;20.58;65.36;100166.97;5073001;28;20063;-78
2022/04/26 07:18:15;;;;;;;11.18;2.83;;;;;;;20.75;61.81;100168.59;5073116;28;20133;-77
2022/04/26 07:20:44;;;;;;;9.20;2.05;;;;;;;20.78;57.13;100161.56;5071681;28;20025;-77
2022/04/26 07:23:12;;;;;;;10.43;2.33;;;;;;;20.91;55.15;100167.59;5073284;28;20171;-77
2022/04/26 07:25:38;;;;;;;8.15;2.22;;;;;;;21.05;55.08;100158.66;5073016;28;20036;-77
2022/04/26 07:28:04;;;;;;;12.38;2.30;;;;;;;21.31;55.19;100155.75;5073058;28;20434;-78
2022/04/26 07:30:36;;;;;;;6.35;2.35;;;;;;;21.43;55.76;100167.84;5073110;28;20029;-77
2022/04/26 07:35:50;;;;;;;20.73;3.03;;;;;;;21.43;53.96;100166.13;5072575;28;20119;-77
2022/04/26 07:38:16;;;;;;;4.47;1.75;;;;;;;21.40;49.80;100147.75;5070461;28;20070;-78
2022/04/26 07:40:42;;;;;;;9.05;1.85;;;;;;;21.57;52.90;100165.97;5065347;28;20065;-78
2022/04/26 07:43:08;;;;;;;15.02;3.25;;;;;;;21.44;47.44;100159.09;5066146;28;20065;-76
2022/04/26 07:45:37;;;;;;;18.98;3.80;;;;;;;21.38;52.04;100152.16;5071452;28;20030;-78
2022/04/26 07:48:05;;;;;;;11.43;2.47;;;;;;;21.55;54.12;100172.09;5070062;28;20024;-77
2022/04/26 07:50:30;;;;;;;9.45;2.30;;;;;;;21.60;52.30;100167.69;5071718;28;20475;-78
2022/04/26 07:52:56;;;;;;;7.55;2.00;;;;;;;21.71;50.54;100168.41;5072167;28;20096;-77
2022/04/26 07:55:22;;;;;;;10.00;2.28;;;;;;;21.57;47.81;100146.69;5072939;28;20103;-78
2022/04/26 07:57:47;;;;;;;7.72;2.00;;;;;;;21.56;47.27;100158.06;5069349;28;20059;-78
2022/04/26 08:00:14;;;;;;;6.00;1.85;;;;;;;21.73;50.85;100173.63;5071805;28;20109;-78
2022/04/26 08:02:40;;;;;;;4.97;1.65;;;;;;;21.76;48.58;100148.16;5072089;28;20020;-77
2022/04/26 08:05:06;;;;;;;9.85;2.38;;;;;;;21.88;52.30;100175.16;5071816;28;20032;-75
2022/04/26 08:07:33;;;;;;;4.25;1.90;;;;;;;21.76;50.17;100152.56;5071298;28;20035;-76
2022/04/26 08:09:58;;;;;;;12.80;2.08;;;;;;;22.02;48.53;100167.06;5070277;28;20036;-77
2022/04/26 08:12:24;;;;;;;24.95;4.25;;;;;;;22.22;51.30;100165.00;5071492;28;20028;-78
2022/04/26 08:14:49;;;;;;;8.95;2.35;;;;;;;22.30;49.99;100167.50;5070183;28;20031;-77
2022/04/26 08:17:15;;;;;;;11.90;2.35;;;;;;;22.33;48.62;100166.59;5071191;28;20108;-76
2022/04/26 08:19:41;;;;;;;11.02;2.05;;;;;;;22.26;49.84;100164.06;5069217;28;20029;-77
2022/04/26 08:22:07;;;;;;;7.43;2.47;;;;;;;22.27;49.08;100171.06;5070716;28;20082;-76
2022/04/26 08:27:23;;;;;;;10.43;1.92;;;;;;;22.52;47.89;100175.06;5069876;28;20034;-76
2022/04/26 08:29:51;;;;;;;10.90;2.45;;;;;;;22.51;51.57;100174.19;5068336;28;20058;-78
2022/04/26 08:32:17;;;;;;;3.92;1.77;;;;;;;22.36;49.85;100149.00;5070223;28;20407;-77
2022/04/26 08:34:42;;;;;;;7.35;1.92;;;;;;;22.38;48.66;100162.16;5070829;28;20024;-77
2022/04/26 08:37:11;;;;;;;13.02;2.70;;;;;;;22.54;49.63;100175.91;5071209;28;20024;-74
2022/04/26 08:39:36;;;;;;;6.88;1.77;;;;;;;22.46;46.36;100165.53;5071156;28;20078;-76
2022/04/26 08:42:38;;;;;;;6.32;2.05;;;;;;;22.58;47.97;100173.22;5071158;28;20028;-77
2022/04/26 08:45:05;;;;;;;9.98;2.20;;;;;;;22.78;49.19;100177.25;5068606;28;20068;-76
2022/04/26 08:52:59;;;;;;;21.63;4.45;;;;;;;22.72;46.56;100128.22;5068925;28;20067;-76
2022/04/26 08:55:25;;;;;;;9.07;1.98;;;;;;;23.05;45.62;100167.09;5068667;28;20032;-76
2022/04/26 08:57:51;;;;;;;5.80;1.60;;;;;;;22.75;44.42;100157.13;5068270;28;20049;-80
2022/04/26 09:00:17;;;;;;;5.00;1.40;;;;;;;22.93;45.64;100170.84;5068294;28;20072;-78
2022/04/26 09:02:42;;;;;;;11.43;1.92;;;;;;;23.14;44.47;100158.13;5067619;28;20113;-78
2022/04/26 09:05:17;;;;;;;5.10;1.50;;;;;;;23.38;44.19;100170.84;5049845;28;20040;-79
2022/04/26 09:07:47;;;;;;;8.90;1.83;;;;;;;23.62;44.07;100175.63;5047428;28;20524;-77
2022/04/26 09:10:18;;;;;;;6.10;1.80;;;;;;;23.57;43.75;100152.00;5047127;28;20045;-78
2022/04/26 09:13:04;;;;;;;6.50;1.75;;;;;;;23.81;43.04;100176.94;5048020;28;20044;-77
2022/04/26 09:15:42;;;;;;;5.65;1.50;;;;;;;23.88;43.05;100169.78;5048699;28;20072;-77
2022/04/26 09:18:26;;;;;;;6.63;1.60;;;;;;;23.89;42.09;100160.97;5050540;28;20103;-81
2022/04/26 09:20:58;;;;;;;4.88;1.80;;;;;;;23.87;41.59;100166.25;5065650;28;20037;-79
2022/04/26 09:23:28;;;;;;;5.93;1.92;;;;;;;24.02;37.96;100159.78;5065217;28;20097;-79
2022/04/26 09:26:11;;;;;;;7.82;1.55;;;;;;;24.15;40.15;100157.75;5050284;28;20064;-80
2022/04/26 09:28:40;;;;;;;14.93;3.25;;;;;;;24.34;40.33;100159.94;5066188;28;20033;-82
2022/04/26 09:31:23;;;;;;;24.63;3.90;;;;;;;24.49;40.00;100153.38;5065672;28;20033;-83
2022/04/26 09:33:52;;;;;;;9.55;2.88;;;;;;;24.47;40.15;100150.78;5050325;28;20032;-80
2022/04/26 09:36:20;;;;;;;12.93;2.50;;;;;;;24.55;37.11;100159.38;5065592;28;20021;-82
2022/04/26 09:38:50;;;;;;;6.10;1.73;;;;;;;24.59;38.78;100159.31;5050609;28;20044;-79
2022/04/26 09:41:15;;;;;;;;;;;;;;;24.68;39.67;100154.66;5065941;28;20048;-82
2022/04/26 09:43:41;;;;;;;14.38;2.80;;;;;;;24.76;37.60;100158.88;5065405;28;19912;-79
2022/04/26 09:46:08;;;;;;;10.73;2.38;;;;;;;24.79;36.75;100148.25;5050807;28;20024;-85
2022/04/26 09:48:36;;;;;;;20.60;3.15;;;;;;;25.01;41.59;100152.00;5050463;28;20027;-80
2022/04/26 09:51:03;;;;;;;9.18;2.13;;;;;;;25.10;40.54;100139.47;5050166;28;20522;-79
2022/04/26 09:53:29;;;;;;;26.05;3.72;;;;;;;25.36;39.93;100157.19;5049550;28;20458;-81
2022/04/26 09:55:56;;;;;;;6.57;2.15;;;;;;;25.48;40.78;100153.34;5064690;28;20043;-81
2022/04/26 09:58:23;;;;;;;12.73;2.25;;;;;;;25.52;37.74;100136.47;5049701;28;20045;-84
2022/04/26 10:00:51;;;;;;;17.42;3.40;;;;;;;25.59;39.41;100143.31;5064117;28;20447;-82
2022/04/26 10:03:24;;;;;;;9.48;2.30;;;;;;;25.72;40.12;100148.22;5064602;28;20385;-85
2022/04/26 10:05:58;;;;;;;11.60;2.45;;;;;;;25.56;39.07;100143.41;5071335;28;20033;-84
2022/04/26 10:08:23;;;;;;;4.85;1.98;;;;;;;25.56;39.14;100147.81;5058500;28;20504;-76
2022/04/26 10:10:49;;;;;;;6.15;1.50;;;;;;;25.75;39.53;100142.84;5057255;28;20074;-77
2022/04/26 10:13:35;;;;;;;4.13;1.55;;;;;;;25.43;39.04;100137.63;5060461;28;20040;-78
2022/04/26 10:16:12;;;;;;;3.95;1.50;;;;;;;25.46;41.93;100137.53;5054905;28;20021;-78
2022/04/26 10:18:47;;;;;;;8.73;1.65;;;;;;;25.74;39.41;100131.38;5061067;28;20466;-79
2022/04/26 10:21:35;;;;;;;7.13;1.42;;;;;;;26.00;39.83;100129.69;5055404;28;20459;-76
2022/04/26 10:24:03;;;;;;;4.30;1.40;;;;;;;25.72;42.39;100137.66;5063492;28;20028;-80
2022/04/26 10:26:30;;;;;;;8.45;1.70;;;;;;;25.97;39.46;100122.72;5071388;28;20068;-78
2022/04/26 10:29:08;;;;;;;5.78;1.42;;;;;;;26.18;37.51;100119.47;5079241;28;20029;-79
2022/04/26 10:31:40;;;;;;;6.88;1.70;;;;;;;26.33;37.28;100124.22;5065198;28;20044;-80
2022/04/26 10:34:16;;;;;;;4.65;1.45;;;;;;;26.55;35.85;100123.50;5073160;28;20107;-79
2022/04/26 10:36:45;;;;;;;8.27;1.65;;;;;;;26.62;37.20;100125.88;5068204;28;20025;-81
2022/04/26 10:39:13;;;;;;;;;;;;;;;26.67;39.20;100135.41;5052009;28;20123;-78
2022/04/26 10:41:46;;;;;;;5.32;1.35;;;;;;;26.21;34.39;100088.47;5052989;28;19912;-80
2022/04/26 10:44:23;;;;;;;4.60;1.27;;;;;;;26.15;35.72;100123.06;5085844;28;20056;-79
2022/04/26 10:47:03;;;;;;;10.75;1.80;;;;;;;26.34;35.14;100119.81;5072834;28;20024;-83
2022/04/26 10:49:32;;;;;;;4.85;1.33;;;;;;;26.41;38.15;100116.03;5072627;28;20551;-83
2022/04/26 10:52:23;;;;;;;4.72;1.42;;;;;;;26.43;36.46;100116.84;5071035;28;20024;-80
2022/04/26 10:54:51;;;;;;;7.45;1.50;;;;;;;26.20;36.87;100107.91;5065962;28;20032;-78
2022/04/26 10:57:20;;;;;;;4.93;1.58;;;;;;;26.00;36.94;100104.09;5071836;28;20029;-79
2022/04/26 10:59:49;;;;;;;4.25;1.40;;;;;;;26.13;38.46;100106.38;5052833;28;20049;-77
2022/04/26 11:02:19;;;;;;;4.68;1.40;;;;;;;26.39;40.77;100109.91;5052592;28;20017;-76
2022/04/26 11:04:57;;;;;;;6.90;1.55;;;;;;;26.57;36.15;100105.78;5055093;28;20423;-79
2022/04/26 11:07:28;;;;;;;3.58;1.40;;;;;;;26.79;38.59;100101.47;5059451;28;20025;-80
2022/04/26 11:09:56;;;;;;;3.65;1.13;;;;;;;26.92;38.99;100108.97;5053581;28;20032;-79
2022/04/26 11:12:36;;;;;;;3.70;1.52;;;;;;;26.66;37.15;100100.16;5053217;28;20515;-79
2022/04/26 11:15:05;;;;;;;8.35;2.53;;;;;;;26.91;36.57;100107.25;5053002;28;20079;-78
2022/04/26 11:17:31;;;;;;;7.05;1.48;;;;;;;26.78;37.31;100101.50;5052387;28;20040;-78
2022/04/26 11:20:03;;;;;;;3.70;1.52;;;;;;;26.67;39.06;100085.13;5050766;28;20037;-79
2022/04/26 11:22:29;;;;;;;6.75;1.45;;;;;;;27.00;36.49;100098.94;5049523;28;20048;-81
2022/04/26 11:28:06;;;;;;;5.72;1.35;;;;;;;26.99;38.54;100106.94;5049042;28;20047;-76
2022/04/26 11:30:43;;;;;;;8.80;1.65;;;;;;;26.60;37.41;100090.63;5063758;28;20033;-78
2022/04/26 11:33:15;;;;;;;4.43;1.58;;;;;;;26.31;36.96;100095.16;5049084;28;20029;-76
2022/04/26 11:35:42;;;;;;;5.25;1.50;;;;;;;26.15;38.76;100091.31;5049377;28;20040;-78
2022/04/26 11:38:15;;;;;;;4.57;1.40;;;;;;;25.85;38.09;100083.47;5048988;28;20029;-78
2022/04/26 11:40:46;;;;;;;4.68;1.40;;;;;;;25.84;41.84;100098.47;5049175;28;20033;-76
2022/04/26 11:43:16;;;;;;;8.77;1.63;;;;;;;25.83;40.74;100072.06;5067238;28;20039;-77
2022/04/26 11:45:44;;;;;;;9.75;1.90;;;;;;;25.71;40.70;100078.63;5069941;28;20124;-76
2022/04/26 11:48:12;;;;;;;9.27;1.52;;;;;;;26.17;36.34;100084.22;5069829;28;20558;-77
2022/04/26 11:50:37;;;;;;;6.57;1.33;;;;;;;26.14;37.24;100071.06;5062982;28;20040;-74
2022/04/26 11:53:30;;;;;;;5.57;1.60;;;;;;;25.88;37.55;100074.56;5052223;28;20037;-79
2022/04/26 11:56:01;;;;;;;7.10;2.10;;;;;;;25.84;36.75;100079.09;5050910;28;20103;-80
2022/04/26 11:58:34;;;;;;;12.93;2.38;;;;;;;26.17;37.74;100060.41;5067827;28;20170;-75
2022/04/26 12:01:15;;;;;;;7.93;1.80;;;;;;;26.71;35.45;100069.06;5051882;28;20056;-77
2022/04/26 12:03:47;;;;;;;5.18;1.83;;;;;;;26.81;34.85;100077.56;5052515;28;20037;-80
2022/04/26 12:06:15;;;;;;;5.03;1.58;;;;;;;26.65;35.08;100077.22;5052388;28;20035;-75
2022/04/26 12:08:49;;;;;;;11.18;2.03;;;;;;;27.02;35.36;100040.63;5052243;28;20053;-75
2022/04/26 12:11:20;;;;;;;10.15;2.40;;;;;;;27.57;34.03;100056.16;5067662;28;20496;-76
2022/04/26 12:14:01;;;;;;;6.60;1.88;;;;;;;27.76;34.18;100019.13;5052164;28;20025;-77
2022/04/26 12:16:29;;;;;;;7.95;1.90;;;;;;;27.83;34.89;100049.78;5052458;28;20447;-78
2022/04/26 12:19:01;;;;;;;6.25;1.90;;;;;;;27.89;34.92;100041.56;5052345;28;20021;-76
2022/04/26 12:21:27;;;;;;;9.52;2.00;;;;;;;27.53;35.73;100015.66;5052346;28;20025;-76
2022/04/26 12:24:10;;;;;;;12.93;2.60;;;;;;;27.47;36.20;100023.84;5066966;28;20040;-76
2022/04/26 12:26:35;;;;;;;15.10;3.05;;;;;;;27.85;35.76;100032.03;5052141;28;20025;-76
2022/04/26 12:29:01;;;;;;;11.48;1.95;;;;;;;28.07;35.03;100036.44;5067479;28;20043;-77
2022/04/26 12:31:30;;;;;;;16.80;2.70;;;;;;;28.36;35.05;100031.66;5052269;28;20167;-74
2022/04/26 12:34:13;;;;;;;13.80;2.72;;;;;;;28.49;33.94;100024.88;5066983;28;20108;-77
2022/04/26 12:37:00;;;;;;;10.85;2.20;;;;;;;28.45;35.80;100033.03;5051781;28;20039;-77
2022/04/26 12:39:27;;;;;;;8.23;2.50;;;;;;;28.62;33.85;100016.34;5051497;28;20032;-78
2022/04/26 12:41:56;;;;;;;7.38;2.40;;;;;;;28.69;34.14;100009.84;5066435;28;20036;-81
2022/04/26 12:44:22;;;;;;;7.35;1.85;;;;;;;28.00;32.95;100009.28;5051700;28;20029;-76
2022/04/26 12:50:28;;;;;;;6.00;1.77;;;;;;;27.71;35.25;100002.53;5051600;28;20573;-77
2022/04/26 12:52:51;;;;;;;9.93;2.13;;;;;;;27.43;37.51;100011.66;5051638;28;20039;-77
2022/04/26 12:55:39;;;;;;;14.57;3.13;;;;;;;27.19;36.60;99993.13;5051146;28;20112;-76
2022/04/26 12:58:18;;;;;;;11.47;2.90;;;;;;;27.65;36.15;100000.16;5066994;28;20037;-77
2022/04/26 13:00:50;;;;;;;8.43;2.47;;;;;;;27.95;33.94;100003.28;5051468;28;20385;-76
2022/04/26 13:03:19;;;;;;;8.13;2.38;;;;;;;27.64;35.25;100004.59;5051476;28;20029;-79
2022/04/26 13:06:04;;;;;;;10.18;2.53;;;;;;;27.16;35.99;99995.88;5051374;28;20040;-77
2022/04/26 13:08:29;;;;;;;12.18;2.47;;;;;;;27.42;34.82;99988.72;5051575;28;20041;-75
2022/04/26 13:10:54;;;;;;;5.55;1.90;;;;;;;27.50;37.65;99981.28;5051794;28;20044;-76
2022/04/26 13:13:20;;;;;;;12.82;2.88;;;;;;;27.25;36.21;99982.28;5051285;28;20057;-78
2022/04/26 13:15:46;;;;;;;7.53;2.05;;;;;;;27.36;36.93;99984.47;5066568;28;20055;-75
2022/04/26 13:18:15;;;;;;;9.63;2.20;;;;;;;27.32;37.00;99995.28;5050720;28;20037;-76
2022/04/26 13:20:43;;;;;;;10.60;2.40;;;;;;;27.48;32.19;99971.69;5065909;28;20040;-81
2022/04/26 13:23:09;;;;;;;15.65;3.03;;;;;;;27.90;35.46;99998.19;5051183;28;20058;-79
2022/04/26 13:25:34;;;;;;;15.35;2.80;;;;;;;28.10;35.36;99991.19;5050996;28;20029;-76
2022/04/26 13:28:03;;;;;;;12.70;3.28;;;;;;;28.13;33.65;99998.16;5050914;28;20094;-78
2022/04/26 13:30:28;;;;;;;15.35;2.75;;;;;;;28.16;35.12;99996.22;5050717;28;20462;-77
2022/04/26 13:32:54;;;;;;;8.43;1.98;;;;;;;28.06;39.05;99989.59;5050630;28;20115;-77
2022/04/26 13:35:20;;;;;;;5.97;1.85;;;;;;;27.49;37.31;99963.69;5051164;28;20071;-77
2022/04/26 13:37:46;;;;;;;11.15;3.10;;;;;;;27.38;35.85;99968.53;5050697;28;20508;-74
2022/04/26 13:40:12;;;;;;;12.45;2.45;;;;;;;27.63;36.20;99991.38;5050534;28;20029;-77
2022/04/26 13:42:37;;;;;;;7.63;2.28;;;;;;;27.66;35.78;99984.16;5050828;28;20029;-77
2022/04/26 13:45:03;;;;;;;11.73;2.00;;;;;;;27.36;36.02;99955.31;5050764;28;20599;-77
2022/04/26 13:47:29;;;;;;;6.60;2.33;;;;;;;27.56;37.35;99981.03;5049224;28;20036;-77
2022/04/26 13:49:54;;;;;;;26.67;3.78;;;;;;;27.46;34.21;99965.59;5050901;28;20484;-78
2022/04/26 13:52:21;;;;;;;9.20;2.30;;;;;;;27.59;33.22;99967.66;5049767;28;20117;-80
2022/04/26 13:54:47;;;;;;;14.10;2.90;;;;;;;27.79;33.92;99973.91;5049173;28;20499;-78
2022/04/26 13:57:13;;;;;;;17.20;3.28;;;;;;;27.81;36.76;99982.66;5050120;28;20052;-75
2022/04/26 13:59:38;;;;;;;17.70;3.80;;;;;;;27.69;35.96;99984.06;5050063;28;20125;-74
2022/04/26 14:02:06;;;;;;;11.50;2.50;;;;;;;27.44;35.29;99970.94;5030475;28;20063;-78
2022/04/26 14:04:33;;;;;;;11.48;2.42;;;;;;;27.23;37.26;99962.91;5049680;28;20041;-74
2022/04/26 14:06:59;;;;;;;8.13;2.00;;;;;;;27.32;39.27;99982.88;5057117;28;20056;-75
2022/04/26 14:09:24;;;;;;;10.07;2.30;;;;;;;27.24;38.60;99977.91;5070111;28;20049;-72
2022/04/26 14:11:55;;;;;;;12.43;6.03;;;;;;;27.40;38.01;99985.25;5070019;28;20021;-75
2022/04/26 14:22:34;;;;;;;20.02;4.10;;;;;;;27.58;37.28;99987.16;5049609;28;20036;-75
2022/04/26 14:25:05;;;;;;;12.00;2.50;;;;;;;27.31;36.42;99986.47;5049462;28;20017;-75
2022/04/26 14:27:32;;;;;;;10.25;2.97;;;;;;;27.17;36.67;99979.06;5049596;28;20071;-75
2022/04/26 14:29:58;;;;;;;14.10;4.47;;;;;;;26.76;37.45;99955.06;5049424;28;20032;-75
2022/04/26 14:32:24;;;;;;;33.85;3.92;;;;;;;26.85;37.41;99978.53;5049821;28;20104;-73
2022/04/26 14:34:50;;;;;;;10.88;4.35;;;;;;;26.94;38.29;99972.91;5049996;28;20036;-75
2022/04/26 14:37:16;;;;;;;14.27;2.80;;;;;;;27.02;38.73;99974.38;5053152;28;20020;-77
2022/04/26 14:39:42;;;;;;;8.93;2.40;;;;;;;26.82;37.54;99965.44;5068866;28;20040;-73
2022/04/26 14:42:08;;;;;;;16.73;5.15;;;;;;;26.68;38.55;99976.53;5064476;28;20029;-75
2022/04/26 14:44:34;;;;;;;9.65;2.30;;;;;;;26.58;38.71;99970.72;5066397;28;20024;-76
2022/04/26 14:47:02;;;;;;;15.32;3.05;;;;;;;26.56;38.96;99972.53;5067548;28;20039;-74
2022/04/26 14:49:28;;;;;;;13.35;2.95;;;;;;;26.40;38.75;99966.09;5066857;28;20032;-77
2022/04/26 14:51:54;;;;;;;13.73;3.08;;;;;;;26.25;40.31;99955.13;5067473;28;20075;-77
2022/04/26 14:54:21;;;;;;;12.65;2.88;;;;;;;26.37;40.01;99968.84;5068402;28;20496;-77
2022/04/26 14:56:47;;;;;;;9.98;2.80;;;;;;;26.31;40.40;99962.84;5069169;28;20119;-75
2022/04/26 14:59:15;;;;;;;14.32;2.85;;;;;;;26.35;41.24;99970.69;5068213;28;20040;-77
2022/04/26 15:01:45;;;;;;;9.77;2.70;;;;;;;26.34;39.75;99961.03;5067750;28;20048;-77
2022/04/26 15:04:10;;;;;;;10.23;2.95;;;;;;;26.47;40.19;99957.88;5070895;28;20043;-77
2022/04/26 15:06:36;;;;;;;14.82;3.00;;;;;;;26.51;40.63;99949.81;5071056;28;20033;-77
2022/04/26 15:11:47;;;;;;;17.70;2.88;;;;;;;26.53;39.10;99932.06;5073504;28;20043;-76
2022/04/26 15:16:56;;;;;;;17.92;2.90;;;;;;;26.38;40.45;99937.03;5072700;28;20090;-76
2022/04/26 15:19:22;;;;;;;9.18;2.30;;;;;;;26.32;40.07;99932.81;5071870;28;20036;-76
2022/04/26 15:21:47;;;;;;;17.23;3.95;;;;;;;26.31;41.31;99935.53;5073401;28;20033;-76
2022/04/26 15:24:13;;;;;;;28.65;5.53;;;;;;;26.34;41.98;99939.84;5072620;28;20027;-76
2022/04/26 15:26:39;;;;;;;19.45;3.67;;;;;;;26.13;42.58;99951.16;5071454;28;20029;-72
2022/04/26 15:29:05;;;;;;;8.80;2.13;;;;;;;25.98;42.03;99943.72;5071358;28;20031;-75
2022/04/26 15:31:32;;;;;;;8.23;1.92;;;;;;;25.34;43.23;99945.00;5067633;28;20035;-76
2022/04/26 15:33:58;;;;;;;14.63;2.28;;;;;;;24.90;44.33;99963.09;5063518;28;20029;-76
2022/04/26 15:36:24;;;;;;;9.60;2.35;;;;;;;24.47;44.92;99968.69;5072095;28;20107;-75